Time;durP1;ratioP1;P1;durP2;ratioP2;P2;SDS_P1;SDS_P2;PMS_P1;PMS_P2;Temp;Humidity;BMP_temperature;BMP_pressure;BME280_temperature;BME280_humidity;BME280_pressure;Samples;Min_cycle;Max_cycle;Signal;HPM_P1;HPM_P2
2022/02/17 00:00:46;;;;;;;0.7;0.7;;;;;;;10.77;79.26172;94080.44;;;;
2022/02/17 00:01:47;;;;;;;0.7;0.7;;;;;;;10.77;79.26172;94080.44;;;;
2022/02/17 00:02:49;;;;;;;1;0.7;;;;;;;10.8;79.72754;94090.16;;;;
2022/02/17 00:03:50;;;;;;;1;0.7;;;;;;;10.8;79.72754;94090.16;;;;
2022/02/17 00:04:50;;;;;;;1;0.7;;;;;;;10.8;79.72754;94090.16;;;;
2022/02/17 00:05:51;;;;;;;1;0.7;;;;;;;10.8;79.72754;94090.16;;;;
2022/02/17 00:06:52;;;;;;;1;0.7;;;;;;;10.8;79.72754;94090.16;;;;
2022/02/17 00:07:52;;;;;;;1;0.7;;;;;;;10.8;79.72754;94090.16;;;;
2022/02/17 00:08:53;;;;;;;1;0.7;;;;;;;10.8;79.72754;94090.16;;;;
2022/02/17 00:09:54;;;;;;;1;0.7;;;;;;;10.8;79.72754;94090.16;;;;
2022/02/17 00:10:54;;;;;;;1;0.7;;;;;;;10.8;79.72754;94090.16;;;;
2022/02/17 00:11:55;;;;;;;1;0.7;;;;;;;10.8;79.72754;94090.16;;;;
2022/02/17 00:12:57;;;;;;;0.6;0.6;;;;;;;10.73;80.77246;94075.28;;;;
2022/02/17 00:13:58;;;;;;;0.6;0.6;;;;;;;10.73;80.77246;94075.28;;;;
2022/02/17 00:14:59;;;;;;;0.6;0.6;;;;;;;10.73;80.77246;94075.28;;;;
2022/02/17 00:15:59;;;;;;;0.6;0.6;;;;;;;10.73;80.77246;94075.28;;;;
2022/02/17 00:17:00;;;;;;;0.6;0.6;;;;;;;10.73;80.77246;94075.28;;;;
2022/02/17 00:18:00;;;;;;;0.6;0.6;;;;;;;10.73;80.77246;94075.28;;;;
2022/02/17 00:19:11;;;;;;;0.6;0.6;;;;;;;10.73;80.77246;94075.28;;;;
2022/02/17 00:20:11;;;;;;;0.6;0.6;;;;;;;10.73;80.77246;94075.28;;;;
2022/02/17 00:21:12;;;;;;;0.6;0.6;;;;;;;10.73;80.77246;94075.28;;;;
2022/02/17 00:22:13;;;;;;;0.6;0.6;;;;;;;10.73;80.77246;94075.28;;;;
2022/02/17 00:23:13;;;;;;;0.6;0.6;;;;;;;10.73;80.77246;94075.28;;;;
2022/02/17 00:24:14;;;;;;;0.65;0.65;;;;;;;10.57;82.98242;94052.97;;;;
2022/02/17 00:25:15;;;;;;;0.65;0.65;;;;;;;10.57;82.98242;94052.97;;;;
2022/02/17 00:26:16;;;;;;;0.65;0.65;;;;;;;10.57;82.98242;94052.97;;;;
2022/02/17 00:27:16;;;;;;;0.65;0.65;;;;;;;10.57;82.98242;94052.97;;;;
2022/02/17 00:28:17;;;;;;;0.65;0.65;;;;;;;10.57;82.98242;94052.97;;;;
2022/02/17 00:29:17;;;;;;;0.65;0.65;;;;;;;10.57;82.98242;94052.97;;;;
2022/02/17 00:30:18;;;;;;;0.65;0.65;;;;;;;10.57;82.98242;94052.97;;;;
2022/02/17 00:31:19;;;;;;;0.65;0.65;;;;;;;10.57;82.98242;94052.97;;;;
2022/02/17 00:32:19;;;;;;;0.65;0.65;;;;;;;10.57;82.98242;94052.97;;;;
2022/02/17 00:33:20;;;;;;;0.65;0.65;;;;;;;10.57;82.98242;94052.97;;;;
2022/02/17 00:34:21;;;;;;;0.8;0.8;;;;;;;10.52;84.76563;94051.08;;;;
2022/02/17 00:35:21;;;;;;;0.8;0.8;;;;;;;10.52;84.76563;94051.08;;;;
2022/02/17 00:36:22;;;;;;;0.8;0.8;;;;;;;10.52;84.76563;94051.08;;;;
2022/02/17 00:37:23;;;;;;;0.8;0.8;;;;;;;10.52;84.76563;94051.08;;;;
2022/02/17 00:38:23;;;;;;;0.8;0.8;;;;;;;10.52;84.76563;94051.08;;;;
2022/02/17 00:39:24;;;;;;;0.8;0.8;;;;;;;10.52;84.76563;94051.08;;;;
2022/02/17 00:40:24;;;;;;;0.8;0.8;;;;;;;10.52;84.76563;94051.08;;;;
2022/02/17 00:41:26;;;;;;;0.8;0.8;;;;;;;10.52;84.76563;94051.08;;;;
2022/02/17 00:42:26;;;;;;;0.8;0.8;;;;;;;10.52;84.76563;94051.08;;;;
2022/02/17 00:43:27;;;;;;;0.8;0.8;;;;;;;10.52;84.76563;94051.08;;;;
2022/02/17 00:44:27;;;;;;;0.8;0.8;;;;;;;10.52;84.76563;94051.08;;;;
2022/02/17 00:45:29;;;;;;;0.8;0.8;;;;;;;10.52;84.76563;94051.08;;;;
2022/02/17 00:46:30;;;;;;;0.8;0.8;;;;;;;10.52;84.76563;94051.08;;;;
2022/02/17 00:47:31;;;;;;;0.8;0.8;;;;;;;10.52;84.76563;94051.08;;;;
2022/02/17 00:48:31;;;;;;;0.8;0.8;;;;;;;10.52;84.76563;94051.08;;;;
2022/02/17 00:49:32;;;;;;;0.8;0.8;;;;;;;10.52;84.76563;94051.08;;;;
2022/02/17 00:50:32;;;;;;;0.8;0.8;;;;;;;10.52;84.76563;94051.08;;;;
2022/02/17 00:51:33;;;;;;;0.8;0.8;;;;;;;10.52;84.76563;94051.08;;;;
2022/02/17 00:52:34;;;;;;;0.8;0.8;;;;;;;10.52;84.76563;94051.08;;;;
2022/02/17 00:53:34;;;;;;;0.8;0.8;;;;;;;10.52;84.76563;94051.08;;;;
2022/02/17 00:54:35;;;;;;;0.8;0.8;;;;;;;10.52;84.76563;94051.08;;;;
2022/02/17 00:55:35;;;;;;;0.7;0.7;;;;;;;10.6;85.82813;94077.53;;;;
2022/02/17 00:56:37;;;;;;;0.7;0.7;;;;;;;10.6;85.82813;94077.53;;;;
2022/02/17 00:57:37;;;;;;;0.7;0.7;;;;;;;10.6;85.82813;94077.53;;;;
2022/02/17 00:58:38;;;;;;;0.7;0.7;;;;;;;10.6;85.82813;94077.53;;;;
2022/02/17 00:59:40;;;;;;;0.7;0.7;;;;;;;10.6;85.82813;94077.53;;;;
2022/02/17 01:00:41;;;;;;;0.7;0.7;;;;;;;10.6;85.82813;94077.53;;;;
2022/02/17 01:01:43;;;;;;;0.7;0.7;;;;;;;10.6;85.82813;94077.53;;;;
2022/02/17 01:02:44;;;;;;;0.7;0.7;;;;;;;10.6;85.82813;94077.53;;;;
2022/02/17 01:03:44;;;;;;;0.7;0.7;;;;;;;10.6;85.82813;94077.53;;;;
2022/02/17 01:04:45;;;;;;;0.7;0.7;;;;;;;10.6;85.82813;94077.53;;;;
2022/02/17 01:05:45;;;;;;;0.7;0.7;;;;;;;10.6;85.82813;94077.53;;;;
2022/02/17 01:06:46;;;;;;;0.7;0.7;;;;;;;10.6;85.82813;94077.53;;;;
2022/02/17 01:07:46;;;;;;;0.7;0.7;;;;;;;10.6;85.82813;94077.53;;;;
2022/02/17 01:08:47;;;;;;;0.7;0.7;;;;;;;10.6;85.82813;94077.53;;;;
2022/02/17 01:09:48;;;;;;;0.7;0.7;;;;;;;10.6;85.82813;94077.53;;;;
2022/02/17 01:10:48;;;;;;;0.7;0.7;;;;;;;10.6;85.82813;94077.53;;;;
2022/02/17 01:11:49;;;;;;;0.7;0.7;;;;;;;10.6;85.82813;94077.53;;;;
2022/02/17 01:12:49;;;;;;;0.7;0.7;;;;;;;10.6;85.82813;94077.53;;;;
2022/02/17 01:13:50;;;;;;;0.7;0.7;;;;;;;10.6;85.82813;94077.53;;;;
2022/02/17 01:14:50;;;;;;;0.7;0.7;;;;;;;10.6;85.82813;94077.53;;;;
2022/02/17 01:15:51;;;;;;;0.7;0.7;;;;;;;10.6;85.82813;94077.53;;;;
2022/02/17 01:16:51;;;;;;;0.7;0.7;;;;;;;11.09;85.26172;94017.55;;;;
2022/02/17 01:17:52;;;;;;;0.7;0.7;;;;;;;11.09;85.26172;94017.55;;;;
2022/02/17 01:18:52;;;;;;;0.7;0.7;;;;;;;11.09;85.26172;94017.55;;;;
2022/02/17 01:19:53;;;;;;;0.7;0.7;;;;;;;11.09;85.26172;94017.55;;;;
2022/02/17 01:20:53;;;;;;;0.7;0.7;;;;;;;11.09;85.26172;94017.55;;;;
2022/02/17 01:21:54;;;;;;;0.7;0.7;;;;;;;11.09;85.26172;94017.55;;;;
2022/02/17 01:22:55;;;;;;;0.7;0.7;;;;;;;11.09;85.26172;94017.55;;;;
2022/02/17 01:23:55;;;;;;;0.7;0.7;;;;;;;11.09;85.26172;94017.55;;;;
2022/02/17 01:24:56;;;;;;;0.7;0.7;;;;;;;11.09;85.26172;94017.55;;;;
2022/02/17 01:25:56;;;;;;;0.7;0.7;;;;;;;11.09;85.26172;94017.55;;;;
2022/02/17 01:26:57;;;;;;;0.7;0.7;;;;;;;11.09;85.26172;94017.55;;;;
2022/02/17 01:27:58;;;;;;;0.6;0.6;;;;;;;11.17;84.87109;94046.34;;;;
2022/02/17 01:28:58;;;;;;;0.6;0.6;;;;;;;11.17;84.87109;94046.34;;;;
2022/02/17 01:29:59;;;;;;;0.6;0.6;;;;;;;11.17;84.87109;94046.34;;;;
2022/02/17 01:30:59;;;;;;;0.6;0.6;;;;;;;11.17;84.87109;94046.34;;;;
2022/02/17 01:32:00;;;;;;;0.6;0.6;;;;;;;11.17;84.87109;94046.34;;;;
2022/02/17 01:33:00;;;;;;;0.6;0.6;;;;;;;11.17;84.87109;94046.34;;;;
2022/02/17 01:34:01;;;;;;;0.6;0.6;;;;;;;11.17;84.87109;94046.34;;;;
2022/02/17 01:35:02;;;;;;;0.6;0.6;;;;;;;11.17;84.87109;94046.34;;;;
2022/02/17 01:36:06;;;;;;;0.6;0.6;;;;;;;11.17;84.87109;94046.34;;;;
2022/02/17 01:37:07;;;;;;;0.6;0.6;;;;;;;11.17;84.87109;94046.34;;;;
2022/02/17 01:38:07;;;;;;;0.6;0.6;;;;;;;11.17;84.87109;94046.34;;;;
2022/02/17 01:39:08;;;;;;;0.6;0.6;;;;;;;11.31;84.59863;94036.61;;;;
2022/02/17 01:40:08;;;;;;;0.6;0.6;;;;;;;11.31;84.59863;94036.61;;;;
2022/02/17 01:41:10;;;;;;;0.6;0.6;;;;;;;11.31;84.59863;94036.61;;;;
2022/02/17 01:42:12;;;;;;;0.6;0.6;;;;;;;11.31;84.59863;94036.61;;;;
2022/02/17 01:43:16;;;;;;;0.6;0.6;;;;;;;11.31;84.59863;94036.61;;;;
2022/02/17 01:44:16;;;;;;;0.6;0.6;;;;;;;11.31;84.59863;94036.61;;;;
2022/02/17 01:45:17;;;;;;;0.6;0.6;;;;;;;11.31;84.59863;94036.61;;;;
2022/02/17 01:46:17;;;;;;;0.6;0.6;;;;;;;11.31;84.59863;94036.61;;;;
2022/02/17 01:47:32;;;;;;;0.6;0.6;;;;;;;11.31;84.59863;94036.61;;;;
2022/02/17 01:48:32;;;;;;;0.6;0.6;;;;;;;11.31;84.59863;94036.61;;;;
2022/02/17 01:49:33;;;;;;;0.65;0.65;;;;;;;11.34;84.00781;94042.28;;;;
2022/02/17 01:50:40;;;;;;;0.65;0.65;;;;;;;11.34;84.00781;94042.28;;;;
2022/02/17 01:51:40;;;;;;;0.65;0.65;;;;;;;11.34;84.00781;94042.28;;;;
2022/02/17 01:52:41;;;;;;;0.65;0.65;;;;;;;11.34;84.00781;94042.28;;;;
2022/02/17 01:53:41;;;;;;;0.65;0.65;;;;;;;11.34;84.00781;94042.28;;;;
2022/02/17 01:54:42;;;;;;;0.65;0.65;;;;;;;11.34;84.00781;94042.28;;;;
2022/02/17 01:55:44;;;;;;;0.65;0.65;;;;;;;11.34;84.00781;94042.28;;;;
2022/02/17 01:56:49;;;;;;;0.65;0.65;;;;;;;11.34;84.00781;94042.28;;;;
2022/02/17 01:57:51;;;;;;;0.65;0.65;;;;;;;11.34;84.00781;94042.28;;;;
2022/02/17 01:58:52;;;;;;;0.65;0.65;;;;;;;11.34;84.00781;94042.28;;;;
2022/02/17 01:59:54;;;;;;;0.6;0.6;;;;;;;11.41;83.53711;94009.16;;;;
2022/02/17 02:00:55;;;;;;;0.6;0.6;;;;;;;11.41;83.53711;94009.16;;;;
2022/02/17 02:01:56;;;;;;;0.6;0.6;;;;;;;11.41;83.53711;94009.16;;;;
2022/02/17 02:02:57;;;;;;;0.6;0.6;;;;;;;11.41;83.53711;94009.16;;;;
2022/02/17 02:03:57;;;;;;;0.6;0.6;;;;;;;11.41;83.53711;94009.16;;;;
2022/02/17 02:04:58;;;;;;;0.6;0.6;;;;;;;11.41;83.53711;94009.16;;;;
2022/02/17 02:05:58;;;;;;;0.6;0.6;;;;;;;11.41;83.53711;94009.16;;;;
2022/02/17 02:06:59;;;;;;;0.6;0.6;;;;;;;11.41;83.53711;94009.16;;;;
2022/02/17 02:07:59;;;;;;;0.6;0.6;;;;;;;11.41;83.53711;94009.16;;;;
2022/02/17 02:09:00;;;;;;;0.6;0.6;;;;;;;11.41;83.53711;94009.16;;;;
2022/02/17 02:10:02;;;;;;;0.6;0.6;;;;;;;11.41;83.53711;94009.16;;;;
2022/02/17 02:11:03;;;;;;;0.6;0.6;;;;;;;11.48;82.95508;93979.83;;;;
2022/02/17 02:12:06;;;;;;;0.6;0.6;;;;;;;11.48;82.95508;93979.83;;;;
2022/02/17 02:13:07;;;;;;;0.6;0.6;;;;;;;11.48;82.95508;93979.83;;;;
2022/02/17 02:14:08;;;;;;;0.6;0.6;;;;;;;11.48;82.95508;93979.83;;;;
2022/02/17 02:15:14;;;;;;;0.6;0.6;;;;;;;11.48;82.95508;93979.83;;;;
2022/02/17 02:16:14;;;;;;;0.6;0.6;;;;;;;11.48;82.95508;93979.83;;;;
2022/02/17 02:17:15;;;;;;;0.6;0.6;;;;;;;11.48;82.95508;93979.83;;;;
2022/02/17 02:18:18;;;;;;;0.6;0.6;;;;;;;11.48;82.95508;93979.83;;;;
2022/02/17 02:19:20;;;;;;;0.6;0.6;;;;;;;11.48;82.95508;93979.83;;;;
2022/02/17 02:20:20;;;;;;;0.6;0.6;;;;;;;11.48;82.95508;93979.83;;;;
2022/02/17 02:21:21;;;;;;;1.6;0.65;;;;;;;11.59;81.70313;93992.25;;;;
2022/02/17 02:22:22;;;;;;;1.6;0.65;;;;;;;11.59;81.70313;93992.25;;;;
2022/02/17 02:23:25;;;;;;;1.6;0.65;;;;;;;11.59;81.70313;93992.25;;;;
2022/02/17 02:24:25;;;;;;;1.6;0.65;;;;;;;11.59;81.70313;93992.25;;;;
2022/02/17 02:25:26;;;;;;;1.6;0.65;;;;;;;11.59;81.70313;93992.25;;;;
2022/02/17 02:26:29;;;;;;;1.6;0.65;;;;;;;11.59;81.70313;93992.25;;;;
2022/02/17 02:27:30;;;;;;;1.6;0.65;;;;;;;11.59;81.70313;93992.25;;;;
2022/02/17 02:28:31;;;;;;;1.6;0.65;;;;;;;11.59;81.70313;93992.25;;;;
2022/02/17 02:29:33;;;;;;;1.6;0.65;;;;;;;11.59;81.70313;93992.25;;;;
2022/02/17 02:30:34;;;;;;;1.6;0.65;;;;;;;11.59;81.70313;93992.25;;;;
2022/02/17 02:31:34;;;;;;;0.6;0.6;;;;;;;11.67;80.94434;93977.4;;;;
2022/02/17 02:32:36;;;;;;;0.6;0.6;;;;;;;11.67;80.94434;93977.4;;;;
2022/02/17 02:33:37;;;;;;;0.6;0.6;;;;;;;11.67;80.94434;93977.4;;;;
2022/02/17 02:34:37;;;;;;;0.6;0.6;;;;;;;11.67;80.94434;93977.4;;;;
2022/02/17 02:35:39;;;;;;;0.6;0.6;;;;;;;11.67;80.94434;93977.4;;;;
2022/02/17 02:36:39;;;;;;;0.6;0.6;;;;;;;11.67;80.94434;93977.4;;;;
2022/02/17 02:37:40;;;;;;;0.6;0.6;;;;;;;11.67;80.94434;93977.4;;;;
2022/02/17 02:38:40;;;;;;;0.6;0.6;;;;;;;11.67;80.94434;93977.4;;;;
2022/02/17 02:39:41;;;;;;;0.6;0.6;;;;;;;11.67;80.94434;93977.4;;;;
2022/02/17 02:40:41;;;;;;;0.6;0.6;;;;;;;11.67;80.94434;93977.4;;;;
2022/02/17 02:41:42;;;;;;;0.6;0.6;;;;;;;11.67;80.94434;93977.4;;;;
2022/02/17 02:42:45;;;;;;;0.9;0.4;;;;;;;11.75;79.49219;93938.96;;;;
2022/02/17 02:43:45;;;;;;;0.9;0.4;;;;;;;11.75;79.49219;93938.96;;;;
2022/02/17 02:44:46;;;;;;;0.9;0.4;;;;;;;11.75;79.49219;93938.96;;;;
2022/02/17 02:45:46;;;;;;;0.9;0.4;;;;;;;11.75;79.49219;93938.96;;;;
2022/02/17 02:46:47;;;;;;;0.9;0.4;;;;;;;11.75;79.49219;93938.96;;;;
2022/02/17 02:47:47;;;;;;;0.9;0.4;;;;;;;11.75;79.49219;93938.96;;;;
2022/02/17 02:48:48;;;;;;;0.9;0.4;;;;;;;11.75;79.49219;93938.96;;;;
2022/02/17 02:49:48;;;;;;;0.9;0.4;;;;;;;11.75;79.49219;93938.96;;;;
2022/02/17 02:50:48;;;;;;;0.9;0.4;;;;;;;11.75;79.49219;93938.96;;;;
2022/02/17 02:51:49;;;;;;;0.9;0.4;;;;;;;11.75;79.49219;93938.96;;;;
2022/02/17 02:52:51;;;;;;;0.9;0.4;;;;;;;11.75;79.49219;93938.96;;;;
2022/02/17 02:53:52;;;;;;;0.5;0.5;;;;;;;11.93;78.23828;93943.77;;;;
2022/02/17 02:54:52;;;;;;;0.5;0.5;;;;;;;11.93;78.23828;93943.77;;;;
2022/02/17 02:55:53;;;;;;;0.5;0.5;;;;;;;11.93;78.23828;93943.77;;;;
2022/02/17 02:56:53;;;;;;;0.5;0.5;;;;;;;11.93;78.23828;93943.77;;;;
2022/02/17 02:57:54;;;;;;;0.5;0.5;;;;;;;11.93;78.23828;93943.77;;;;
2022/02/17 02:58:55;;;;;;;0.5;0.5;;;;;;;11.93;78.23828;93943.77;;;;
2022/02/17 02:59:55;;;;;;;0.5;0.5;;;;;;;11.93;78.23828;93943.77;;;;
2022/02/17 03:00:56;;;;;;;0.5;0.5;;;;;;;11.93;78.23828;93943.77;;;;
2022/02/17 03:01:56;;;;;;;0.5;0.5;;;;;;;11.93;78.23828;93943.77;;;;
2022/02/17 03:02:57;;;;;;;0.5;0.5;;;;;;;11.93;78.23828;93943.77;;;;
2022/02/17 03:03:59;;;;;;;0.55;0.55;;;;;;;12.01;76.99902;93874.76;;;;
2022/02/17 03:05:00;;;;;;;0.55;0.55;;;;;;;12.01;76.99902;93874.76;;;;
2022/02/17 03:06:01;;;;;;;0.55;0.55;;;;;;;12.01;76.99902;93874.76;;;;
2022/02/17 03:07:01;;;;;;;0.55;0.55;;;;;;;12.01;76.99902;93874.76;;;;
2022/02/17 03:08:02;;;;;;;0.55;0.55;;;;;;;12.01;76.99902;93874.76;;;;
2022/02/17 03:09:03;;;;;;;0.55;0.55;;;;;;;12.01;76.99902;93874.76;;;;
2022/02/17 03:10:04;;;;;;;0.55;0.55;;;;;;;12.01;76.99902;93874.76;;;;
2022/02/17 03:11:05;;;;;;;0.55;0.55;;;;;;;12.01;76.99902;93874.76;;;;
2022/02/17 03:12:06;;;;;;;0.55;0.55;;;;;;;12.01;76.99902;93874.76;;;;
2022/02/17 03:13:07;;;;;;;0.55;0.55;;;;;;;12.01;76.99902;93874.76;;;;
2022/02/17 03:14:09;;;;;;;0.55;0.55;;;;;;;12.01;76.99902;93874.76;;;;
2022/02/17 03:15:10;;;;;;;0.6;0.6;;;;;;;11.9;75.94922;93888.06;;;;
2022/02/17 03:16:11;;;;;;;0.6;0.6;;;;;;;11.9;75.94922;93888.06;;;;
2022/02/17 03:17:11;;;;;;;0.6;0.6;;;;;;;11.9;75.94922;93888.06;;;;
2022/02/17 03:18:12;;;;;;;0.6;0.6;;;;;;;11.9;75.94922;93888.06;;;;
2022/02/17 03:19:13;;;;;;;0.6;0.6;;;;;;;11.9;75.94922;93888.06;;;;
2022/02/17 03:20:13;;;;;;;0.6;0.6;;;;;;;11.9;75.94922;93888.06;;;;
2022/02/17 03:21:14;;;;;;;0.6;0.6;;;;;;;11.9;75.94922;93888.06;;;;
2022/02/17 03:22:14;;;;;;;0.6;0.6;;;;;;;11.9;75.94922;93888.06;;;;
2022/02/17 03:23:15;;;;;;;0.6;0.6;;;;;;;11.9;75.94922;93888.06;;;;
2022/02/17 03:24:16;;;;;;;0.6;0.6;;;;;;;11.9;75.94922;93888.06;;;;
2022/02/17 03:25:16;;;;;;;0.6;0.6;;;;;;;11.9;75.94922;93888.06;;;;
2022/02/17 03:26:17;;;;;;;0.6;0.6;;;;;;;11.9;75.94922;93888.06;;;;
2022/02/17 03:27:18;;;;;;;0.6;0.6;;;;;;;11.9;75.94922;93888.06;;;;
2022/02/17 03:28:18;;;;;;;0.6;0.6;;;;;;;11.9;75.94922;93888.06;;;;
2022/02/17 03:29:19;;;;;;;0.6;0.6;;;;;;;11.9;75.94922;93888.06;;;;
2022/02/17 03:30:19;;;;;;;0.6;0.6;;;;;;;11.9;75.94922;93888.06;;;;
2022/02/17 03:31:20;;;;;;;0.6;0.6;;;;;;;11.9;75.94922;93888.06;;;;
2022/02/17 03:32:20;;;;;;;0.6;0.6;;;;;;;11.9;75.94922;93888.06;;;;
2022/02/17 03:33:21;;;;;;;0.6;0.6;;;;;;;11.9;75.94922;93888.06;;;;
2022/02/17 03:34:23;;;;;;;0.6;0.6;;;;;;;11.9;75.94922;93888.06;;;;
2022/02/17 03:35:25;;;;;;;0.6;0.6;;;;;;;11.9;75.94922;93888.06;;;;
2022/02/17 03:36:25;;;;;;;0.5;0.5;;;;;;;11.72;74.11523;93881.92;;;;
2022/02/17 03:37:26;;;;;;;0.5;0.5;;;;;;;11.72;74.11523;93881.92;;;;
2022/02/17 03:38:27;;;;;;;0.5;0.5;;;;;;;11.72;74.11523;93881.92;;;;
2022/02/17 03:39:28;;;;;;;0.5;0.5;;;;;;;11.72;74.11523;93881.92;;;;
2022/02/17 03:40:28;;;;;;;0.5;0.5;;;;;;;11.72;74.11523;93881.92;;;;
2022/02/17 03:41:29;;;;;;;0.5;0.5;;;;;;;11.72;74.11523;93881.92;;;;
2022/02/17 03:42:29;;;;;;;0.5;0.5;;;;;;;11.72;74.11523;93881.92;;;;
2022/02/17 03:43:30;;;;;;;0.5;0.5;;;;;;;11.72;74.11523;93881.92;;;;
2022/02/17 03:44:31;;;;;;;0.5;0.5;;;;;;;11.72;74.11523;93881.92;;;;
2022/02/17 03:45:31;;;;;;;0.5;0.5;;;;;;;11.72;74.11523;93881.92;;;;
2022/02/17 03:46:32;;;;;;;0.7;0.7;;;;;;;11.57;73.89746;93847.61;;;;
2022/02/17 03:47:32;;;;;;;0.7;0.7;;;;;;;11.57;73.89746;93847.61;;;;
2022/02/17 03:48:33;;;;;;;0.7;0.7;;;;;;;11.57;73.89746;93847.61;;;;
2022/02/17 03:49:34;;;;;;;0.7;0.7;;;;;;;11.57;73.89746;93847.61;;;;
2022/02/17 03:50:34;;;;;;;0.7;0.7;;;;;;;11.57;73.89746;93847.61;;;;
2022/02/17 03:51:35;;;;;;;0.7;0.7;;;;;;;11.57;73.89746;93847.61;;;;
2022/02/17 03:52:36;;;;;;;0.7;0.7;;;;;;;11.57;73.89746;93847.61;;;;
2022/02/17 03:53:37;;;;;;;0.7;0.7;;;;;;;11.57;73.89746;93847.61;;;;
2022/02/17 03:54:37;;;;;;;0.7;0.7;;;;;;;11.57;73.89746;93847.61;;;;
2022/02/17 03:55:38;;;;;;;0.7;0.7;;;;;;;11.57;73.89746;93847.61;;;;
2022/02/17 03:56:38;;;;;;;0.7;0.7;;;;;;;11.57;73.89746;93847.61;;;;
2022/02/17 03:57:39;;;;;;;0.6;0.6;;;;;;;11.42;73.35742;93846.75;;;;
2022/02/17 03:59:12;;;;;;;0.6;0.6;;;;;;;11.42;73.35742;93846.75;;;;
2022/02/17 04:00:12;;;;;;;0.6;0.6;;;;;;;11.42;73.35742;93846.75;;;;
2022/02/17 04:01:14;;;;;;;0.6;0.6;;;;;;;11.42;73.35742;93846.75;;;;
2022/02/17 04:02:15;;;;;;;0.6;0.6;;;;;;;11.42;73.35742;93846.75;;;;
2022/02/17 04:03:15;;;;;;;0.6;0.6;;;;;;;11.42;73.35742;93846.75;;;;
2022/02/17 04:04:16;;;;;;;0.6;0.6;;;;;;;11.42;73.35742;93846.75;;;;
2022/02/17 04:05:16;;;;;;;0.6;0.6;;;;;;;11.42;73.35742;93846.75;;;;
2022/02/17 04:06:17;;;;;;;0.6;0.6;;;;;;;11.42;73.35742;93846.75;;;;
2022/02/17 04:07:17;;;;;;;0.6;0.6;;;;;;;11.42;73.35742;93846.75;;;;
2022/02/17 04:08:18;;;;;;;0.6;0.6;;;;;;;11.49;72.71582;93876.03;;;;
2022/02/17 04:09:18;;;;;;;0.6;0.6;;;;;;;11.49;72.71582;93876.03;;;;
2022/02/17 04:10:19;;;;;;;0.6;0.6;;;;;;;11.49;72.71582;93876.03;;;;
2022/02/17 04:11:20;;;;;;;0.6;0.6;;;;;;;11.49;72.71582;93876.03;;;;
2022/02/17 04:12:20;;;;;;;0.6;0.6;;;;;;;11.49;72.71582;93876.03;;;;
2022/02/17 04:13:21;;;;;;;0.6;0.6;;;;;;;11.49;72.71582;93876.03;;;;
2022/02/17 04:14:21;;;;;;;0.6;0.6;;;;;;;11.49;72.71582;93876.03;;;;
2022/02/17 04:15:22;;;;;;;0.6;0.6;;;;;;;11.49;72.71582;93876.03;;;;
2022/02/17 04:16:22;;;;;;;0.6;0.6;;;;;;;11.49;72.71582;93876.03;;;;
2022/02/17 04:17:23;;;;;;;0.6;0.6;;;;;;;11.49;72.71582;93876.03;;;;
2022/02/17 04:18:23;;;;;;;0.6;0.6;;;;;;;11.65;72.18262;93881.41;;;;
2022/02/17 04:19:26;;;;;;;0.6;0.6;;;;;;;11.65;72.18262;93881.41;;;;
2022/02/17 04:20:27;;;;;;;0.6;0.6;;;;;;;11.65;72.18262;93881.41;;;;
2022/02/17 04:21:27;;;;;;;0.6;0.6;;;;;;;11.65;72.18262;93881.41;;;;
2022/02/17 04:22:28;;;;;;;0.6;0.6;;;;;;;11.65;72.18262;93881.41;;;;
2022/02/17 04:23:28;;;;;;;0.6;0.6;;;;;;;11.65;72.18262;93881.41;;;;
2022/02/17 04:24:29;;;;;;;0.6;0.6;;;;;;;11.65;72.18262;93881.41;;;;
2022/02/17 04:25:30;;;;;;;0.6;0.6;;;;;;;11.65;72.18262;93881.41;;;;
2022/02/17 04:26:30;;;;;;;0.6;0.6;;;;;;;11.65;72.18262;93881.41;;;;
2022/02/17 04:27:31;;;;;;;0.6;0.6;;;;;;;11.65;72.18262;93881.41;;;;
2022/02/17 04:28:31;;;;;;;0.6;0.6;;;;;;;11.65;72.18262;93881.41;;;;
2022/02/17 04:29:32;;;;;;;0.65;0.65;;;;;;;11.45;72.25781;93911.05;;;;
2022/02/17 04:30:32;;;;;;;0.65;0.65;;;;;;;11.45;72.25781;93911.05;;;;
2022/02/17 04:31:33;;;;;;;0.65;0.65;;;;;;;11.45;72.25781;93911.05;;;;
2022/02/17 04:32:34;;;;;;;0.65;0.65;;;;;;;11.45;72.25781;93911.05;;;;
2022/02/17 04:33:34;;;;;;;0.65;0.65;;;;;;;11.45;72.25781;93911.05;;;;
2022/02/17 04:34:36;;;;;;;0.65;0.65;;;;;;;11.45;72.25781;93911.05;;;;
2022/02/17 04:35:37;;;;;;;0.65;0.65;;;;;;;11.45;72.25781;93911.05;;;;
2022/02/17 04:36:37;;;;;;;0.65;0.65;;;;;;;11.45;72.25781;93911.05;;;;
2022/02/17 04:37:38;;;;;;;0.65;0.65;;;;;;;11.45;72.25781;93911.05;;;;
2022/02/17 04:38:38;;;;;;;0.65;0.65;;;;;;;11.45;72.25781;93911.05;;;;
2022/02/17 04:39:39;;;;;;;0.8;0.5;;;;;;;11.31;72.6543;93879.35;;;;
2022/02/17 04:45:51;;;;;;;0.8;0.5;;;;;;;11.31;72.6543;93879.35;;;;
2022/02/17 04:46:51;;;;;;;0.8;0.5;;;;;;;11.31;72.6543;93879.35;;;;
2022/02/17 04:47:54;;;;;;;0.8;0.5;;;;;;;11.31;72.6543;93879.35;;;;
2022/02/17 04:48:55;;;;;;;0.8;0.5;;;;;;;11.31;72.6543;93879.35;;;;
2022/02/17 04:49:55;;;;;;;0.8;0.5;;;;;;;11.31;72.6543;93879.35;;;;
2022/02/17 04:50:56;;;;;;;0.8;0.8;;;;;;;11.2;73.14941;93866.94;;;;
2022/02/17 04:51:56;;;;;;;0.8;0.8;;;;;;;11.2;73.14941;93866.94;;;;
2022/02/17 04:52:57;;;;;;;0.8;0.8;;;;;;;11.2;73.14941;93866.94;;;;
2022/02/17 04:53:57;;;;;;;0.8;0.8;;;;;;;11.2;73.14941;93866.94;;;;
2022/02/17 04:54:58;;;;;;;0.8;0.8;;;;;;;11.2;73.14941;93866.94;;;;
2022/02/17 04:55:58;;;;;;;0.8;0.8;;;;;;;11.2;73.14941;93866.94;;;;
2022/02/17 04:57:00;;;;;;;0.8;0.8;;;;;;;11.2;73.14941;93866.94;;;;
2022/02/17 04:58:00;;;;;;;0.8;0.8;;;;;;;11.2;73.14941;93866.94;;;;
2022/02/17 04:59:01;;;;;;;0.8;0.8;;;;;;;11.2;73.14941;93866.94;;;;
2022/02/17 05:00:02;;;;;;;0.8;0.8;;;;;;;11.2;73.14941;93866.94;;;;
2022/02/17 05:01:03;;;;;;;0.7;0.7;;;;;;;11.15;73.51563;93869.64;;;;
2022/02/17 05:02:05;;;;;;;0.7;0.7;;;;;;;11.15;73.51563;93869.64;;;;
2022/02/17 05:03:05;;;;;;;0.7;0.7;;;;;;;11.15;73.51563;93869.64;;;;
2022/02/17 05:04:06;;;;;;;0.7;0.7;;;;;;;11.15;73.51563;93869.64;;;;
2022/02/17 05:05:06;;;;;;;0.7;0.7;;;;;;;11.15;73.51563;93869.64;;;;
2022/02/17 05:06:07;;;;;;;0.7;0.7;;;;;;;11.15;73.51563;93869.64;;;;
2022/02/17 05:07:08;;;;;;;0.7;0.7;;;;;;;11.15;73.51563;93869.64;;;;
2022/02/17 05:08:08;;;;;;;0.7;0.7;;;;;;;11.15;73.51563;93869.64;;;;
2022/02/17 05:09:09;;;;;;;0.7;0.7;;;;;;;11.15;73.51563;93869.64;;;;
2022/02/17 05:10:10;;;;;;;0.7;0.7;;;;;;;11.15;73.51563;93869.64;;;;
2022/02/17 05:11:10;;;;;;;0.7;0.7;;;;;;;11.15;73.51563;93869.64;;;;
2022/02/17 05:12:11;;;;;;;0.6;0.6;;;;;;;11.22;73.69922;93902.61;;;;
2022/02/17 05:13:11;;;;;;;0.6;0.6;;;;;;;11.22;73.69922;93902.61;;;;
2022/02/17 05:14:12;;;;;;;0.6;0.6;;;;;;;11.22;73.69922;93902.61;;;;
2022/02/17 05:15:12;;;;;;;0.6;0.6;;;;;;;11.22;73.69922;93902.61;;;;
2022/02/17 05:16:13;;;;;;;0.6;0.6;;;;;;;11.22;73.69922;93902.61;;;;
2022/02/17 05:17:13;;;;;;;0.6;0.6;;;;;;;11.22;73.69922;93902.61;;;;
2022/02/17 05:18:14;;;;;;;0.6;0.6;;;;;;;11.22;73.69922;93902.61;;;;
2022/02/17 05:19:14;;;;;;;0.6;0.6;;;;;;;11.22;73.69922;93902.61;;;;
2022/02/17 05:20:15;;;;;;;0.6;0.6;;;;;;;11.22;73.69922;93902.61;;;;
2022/02/17 05:21:15;;;;;;;0.6;0.6;;;;;;;11.22;73.69922;93902.61;;;;
2022/02/17 05:22:16;;;;;;;0.6;0.6;;;;;;;11.22;73.69922;93902.61;;;;
2022/02/17 05:23:17;;;;;;;0.5;0.5;;;;;;;11.2;73.81445;93923.68;;;;
2022/02/17 05:24:17;;;;;;;0.5;0.5;;;;;;;11.2;73.81445;93923.68;;;;
2022/02/17 05:25:18;;;;;;;0.5;0.5;;;;;;;11.2;73.81445;93923.68;;;;
2022/02/17 05:26:19;;;;;;;0.5;0.5;;;;;;;11.2;73.81445;93923.68;;;;
2022/02/17 05:27:20;;;;;;;0.5;0.5;;;;;;;11.2;73.81445;93923.68;;;;
2022/02/17 05:28:20;;;;;;;0.5;0.5;;;;;;;11.2;73.81445;93923.68;;;;
2022/02/17 05:29:20;;;;;;;0.5;0.5;;;;;;;11.2;73.81445;93923.68;;;;
2022/02/17 05:30:21;;;;;;;0.5;0.5;;;;;;;11.2;73.81445;93923.68;;;;
2022/02/17 05:31:22;;;;;;;0.5;0.5;;;;;;;11.2;73.81445;93923.68;;;;
2022/02/17 05:32:23;;;;;;;0.5;0.5;;;;;;;11.2;73.81445;93923.68;;;;
2022/02/17 05:33:23;;;;;;;0.6;0.6;;;;;;;11.26;74.25293;93942.05;;;;
2022/02/17 05:34:24;;;;;;;0.6;0.6;;;;;;;11.26;74.25293;93942.05;;;;
2022/02/17 05:35:24;;;;;;;0.6;0.6;;;;;;;11.26;74.25293;93942.05;;;;
2022/02/17 05:36:25;;;;;;;0.6;0.6;;;;;;;11.26;74.25293;93942.05;;;;
2022/02/17 05:37:25;;;;;;;0.6;0.6;;;;;;;11.26;74.25293;93942.05;;;;
2022/02/17 05:38:26;;;;;;;0.6;0.6;;;;;;;11.26;74.25293;93942.05;;;;
2022/02/17 05:39:26;;;;;;;0.6;0.6;;;;;;;11.26;74.25293;93942.05;;;;
2022/02/17 05:40:27;;;;;;;0.6;0.6;;;;;;;11.26;74.25293;93942.05;;;;
2022/02/17 05:41:28;;;;;;;0.6;0.6;;;;;;;11.26;74.25293;93942.05;;;;
2022/02/17 05:42:29;;;;;;;0.6;0.6;;;;;;;11.26;74.25293;93942.05;;;;
2022/02/17 05:43:30;;;;;;;0.6;0.6;;;;;;;11.26;74.25293;93942.05;;;;
2022/02/17 05:44:31;;;;;;;0.5;0.5;;;;;;;11.23;74.42969;93927.71;;;;
2022/02/17 05:45:31;;;;;;;0.5;0.5;;;;;;;11.23;74.42969;93927.71;;;;
2022/02/17 05:46:32;;;;;;;0.5;0.5;;;;;;;11.23;74.42969;93927.71;;;;
2022/02/17 05:47:33;;;;;;;0.5;0.5;;;;;;;11.23;74.42969;93927.71;;;;
2022/02/17 05:48:34;;;;;;;0.5;0.5;;;;;;;11.23;74.42969;93927.71;;;;
2022/02/17 05:49:34;;;;;;;0.5;0.5;;;;;;;11.23;74.42969;93927.71;;;;
2022/02/17 05:50:35;;;;;;;0.5;0.5;;;;;;;11.23;74.42969;93927.71;;;;
2022/02/17 05:51:35;;;;;;;0.5;0.5;;;;;;;11.23;74.42969;93927.71;;;;
2022/02/17 05:52:36;;;;;;;0.5;0.5;;;;;;;11.23;74.42969;93927.71;;;;
2022/02/17 05:53:36;;;;;;;0.5;0.5;;;;;;;11.23;74.42969;93927.71;;;;
2022/02/17 05:54:37;;;;;;;0.7;0.7;;;;;;;11.26;75.09961;93900.95;;;;
2022/02/17 05:55:37;;;;;;;0.7;0.7;;;;;;;11.26;75.09961;93900.95;;;;
2022/02/17 05:56:40;;;;;;;0.7;0.7;;;;;;;11.26;75.09961;93900.95;;;;
2022/02/17 05:57:41;;;;;;;0.7;0.7;;;;;;;11.26;75.09961;93900.95;;;;
2022/02/17 05:58:42;;;;;;;0.7;0.7;;;;;;;11.26;75.09961;93900.95;;;;
2022/02/17 05:59:44;;;;;;;0.7;0.7;;;;;;;11.26;75.09961;93900.95;;;;
2022/02/17 06:00:44;;;;;;;0.7;0.7;;;;;;;11.26;75.09961;93900.95;;;;